Vichy/Rolla, Missouri
Current Conditions -  °F | °C
As of 12:53 PM on Friday 31 Oct 2014 (Local Time) from KVIH Reporting Station
Clear Clear  
Wind Chill: 34°   Ceiling: Unl
Heat Index: 42°   Visibility: 10mi
Dew Point: 22°   Wind: 18mph
Humidity: 45%   Direction: 340°NNW
Pressure: 30.32"   Gusts: 26mph
Location:  38.12°N, 91.76°W
Report Text: KVIH 311753Z AUTO 34016G23KT 10SM CLR 06/M06 A3032 RMK AO2 PK WND 33026/1740 SLP272 T00561056 10072 20039 50011
Loading
Personal Weather Stations






























Interactive Weather Map
Tropical Storm Tracking
New forecast layout! Learn more

10-Day Weather Forecast

Advertisements
Track Severe Weather on mobile